createdAt,value
2022-12-19T00:01:03.130Z,8.65
2022-12-19T00:03:35.169Z,8.23
2022-12-19T00:06:07.625Z,8.20
2022-12-19T00:08:41.922Z,7.80
2022-12-19T00:11:14.932Z,7.55
2022-12-19T00:13:47.385Z,8.38
2022-12-19T00:16:22.510Z,7.70
2022-12-19T00:18:56.545Z,7.65
2022-12-19T00:21:31.151Z,8.02
2022-12-19T00:24:13.144Z,8.32
2022-12-19T00:26:52.437Z,7.07
2022-12-19T00:29:24.393Z,7.15
2022-12-19T00:31:58.803Z,8.20
2022-12-19T00:34:30.731Z,7.60
2022-12-19T00:37:02.612Z,8.20
2022-12-19T00:39:34.545Z,8.00
2022-12-19T00:42:06.500Z,8.65
2022-12-19T00:44:38.389Z,7.25
2022-12-19T00:47:11.737Z,8.38
2022-12-19T00:49:43.622Z,8.18
2022-12-19T00:52:16.331Z,7.95
2022-12-19T00:54:48.293Z,7.53
2022-12-19T00:57:20.355Z,6.97
2022-12-19T00:59:52.266Z,7.15
2022-12-19T01:02:25.982Z,7.20
2022-12-19T01:04:59.698Z,7.63
2022-12-19T01:07:31.655Z,8.02
2022-12-19T01:10:07.315Z,7.75
2022-12-19T01:12:48.977Z,6.00
2022-12-19T01:15:21.267Z,7.05
2022-12-19T01:17:54.618Z,8.68
2022-12-19T01:20:29.658Z,7.22
2022-12-19T01:23:02.536Z,6.78
2022-12-19T01:25:34.810Z,8.07
2022-12-19T01:28:14.024Z,7.35
2022-12-19T01:30:47.625Z,7.70
2022-12-19T01:33:21.295Z,6.72
2022-12-19T01:35:53.258Z,8.20
2022-12-19T01:38:25.183Z,6.95
2022-12-19T01:40:58.082Z,8.75
2022-12-19T01:43:32.721Z,8.32
2022-12-19T01:46:06.670Z,12.48
2022-12-19T01:48:44.192Z,11.88
2022-12-19T01:51:19.902Z,7.25
2022-12-19T01:53:58.070Z,6.95
2022-12-19T01:56:36.006Z,6.97
2022-12-19T01:59:13.787Z,6.25
2022-12-19T02:01:56.763Z,7.53
2022-12-19T02:04:32.279Z,6.88
2022-12-19T02:07:15.574Z,7.72
2022-12-19T02:09:56.877Z,7.65
2022-12-19T02:12:37.897Z,6.93
2022-12-19T02:15:12.203Z,6.50
2022-12-19T02:18:00.884Z,7.32
2022-12-19T02:21:02.395Z,7.35
2022-12-19T02:24:09.636Z,7.38
2022-12-19T02:27:01.398Z,6.65
2022-12-19T02:30:05.159Z,6.78
2022-12-19T02:32:51.730Z,6.43
2022-12-19T02:35:32.231Z,6.40
2022-12-19T02:38:13.253Z,7.32
2022-12-19T02:40:52.996Z,8.38
2022-12-19T02:43:35.496Z,7.22
2022-12-19T02:46:11.579Z,7.28
2022-12-19T02:48:47.445Z,7.38
2022-12-19T02:51:19.366Z,7.80
2022-12-19T02:53:52.599Z,6.55
2022-12-19T02:56:37.942Z,7.55
2022-12-19T02:59:34.444Z,6.93
2022-12-19T03:02:17.720Z,7.07
2022-12-19T03:04:59.633Z,7.72
2022-12-19T03:07:40.935Z,8.10
2022-12-19T03:10:20.826Z,8.82
2022-12-19T03:12:58.130Z,8.98
2022-12-19T03:15:32.204Z,7.93
2022-12-19T03:18:04.520Z,9.10
2022-12-19T03:20:45.951Z,9.23
2022-12-19T03:23:18.717Z,9.30
2022-12-19T03:25:55.140Z,8.23
2022-12-19T03:28:35.750Z,8.68
2022-12-19T03:31:09.999Z,8.52
2022-12-19T03:33:43.365Z,9.60
2022-12-19T03:36:22.417Z,9.07
2022-12-19T03:38:56.323Z,9.88
2022-12-19T03:41:48.001Z,10.02
2022-12-19T03:44:23.711Z,9.77
2022-12-19T03:47:01.767Z,9.10
2022-12-19T03:49:33.864Z,9.65
2022-12-19T03:52:12.838Z,9.40
2022-12-19T03:54:50.615Z,9.23
2022-12-19T03:57:28.988Z,10.15
2022-12-19T04:00:05.217Z,10.60
2022-12-19T04:02:47.382Z,11.45
2022-12-19T04:05:22.666Z,10.52
2022-12-19T04:08:03.381Z,10.80
2022-12-19T04:10:43.165Z,10.50
2022-12-19T04:13:18.812Z,11.70
2022-12-19T04:15:59.052Z,11.77
2022-12-19T04:21:11.651Z,11.30
2022-12-19T04:23:50.891Z,11.02
2022-12-19T04:26:24.533Z,9.25
2022-12-19T04:29:01.568Z,11.40
2022-12-19T04:31:33.802Z,11.95
2022-12-19T04:34:05.940Z,11.93
2022-12-19T04:36:38.268Z,13.27
2022-12-19T04:39:11.558Z,12.57
2022-12-19T04:41:43.454Z,12.98
2022-12-19T04:44:15.511Z,15.00
2022-12-19T04:46:47.475Z,15.60
2022-12-19T04:49:19.489Z,15.63
2022-12-19T04:51:51.430Z,14.70
2022-12-19T04:54:24.709Z,13.73
2022-12-19T04:56:56.714Z,13.73
2022-12-19T04:59:28.788Z,16.20
2022-12-19T05:02:00.956Z,14.25
2022-12-19T05:04:32.982Z,15.55
2022-12-19T05:07:04.953Z,15.23
2022-12-19T05:09:39.670Z,16.05
2022-12-19T05:12:11.734Z,14.93
2022-12-19T05:14:43.658Z,15.98
2022-12-19T05:17:15.582Z,17.20
2022-12-19T05:19:47.889Z,16.48
2022-12-19T05:22:19.869Z,16.73
2022-12-19T05:24:53.167Z,15.65
2022-12-19T05:27:25.159Z,16.98
2022-12-19T05:29:57.091Z,16.33
2022-12-19T05:32:30.455Z,17.25
2022-12-19T05:35:02.410Z,17.73
2022-12-19T05:37:34.380Z,18.13
2022-12-19T05:40:09.223Z,17.13
2022-12-19T05:42:41.243Z,17.45
2022-12-19T05:45:13.193Z,19.50
2022-12-19T05:47:46.604Z,17.95
2022-12-19T05:50:18.782Z,19.35
2022-12-19T05:52:56.137Z,17.63
2022-12-19T05:55:29.404Z,19.08
2022-12-19T05:58:01.331Z,18.65
2022-12-19T06:00:33.228Z,17.60
2022-12-19T06:03:05.287Z,18.05
2022-12-19T06:05:38.579Z,19.15
2022-12-19T06:08:10.498Z,20.35
2022-12-19T06:10:44.674Z,18.85
2022-12-19T06:13:19.739Z,20.42
2022-12-19T06:15:59.064Z,18.30
2022-12-19T06:18:31.639Z,19.27
2022-12-19T06:21:05.808Z,20.20
2022-12-19T06:23:38.052Z,18.77
2022-12-19T06:26:18.615Z,22.20
2022-12-19T06:28:52.781Z,20.50
2022-12-19T06:31:25.884Z,18.48
2022-12-19T06:33:57.837Z,19.55
2022-12-19T06:36:31.427Z,19.55
2022-12-19T06:39:04.274Z,21.38
2022-12-19T06:41:56.335Z,21.38
2022-12-19T06:44:28.234Z,21.10
2022-12-19T06:47:00.296Z,20.75
2022-12-19T06:49:32.216Z,21.77
2022-12-19T06:52:09.030Z,21.90
2022-12-19T06:54:41.470Z,20.75
2022-12-19T06:57:14.819Z,21.50
2022-12-19T06:59:46.826Z,20.30
2022-12-19T07:02:27.503Z,21.17
2022-12-19T07:05:02.948Z,20.15
2022-12-19T07:07:35.467Z,22.40
2022-12-19T07:10:09.310Z,23.63
2022-12-19T07:12:42.575Z,21.35
2022-12-19T07:15:14.926Z,22.25
2022-12-19T07:17:47.064Z,23.00
2022-12-19T07:20:20.681Z,24.42
2022-12-19T07:22:52.889Z,23.10
2022-12-19T07:25:24.989Z,31.05
2022-12-19T07:27:58.575Z,26.85
2022-12-19T07:30:30.635Z,24.65
2022-12-19T07:33:02.736Z,27.00
2022-12-19T07:35:34.738Z,25.10
2022-12-19T07:38:08.520Z,22.42
2022-12-19T07:40:40.611Z,24.00
2022-12-19T07:43:13.905Z,25.95
2022-12-19T07:45:45.867Z,26.02
2022-12-19T07:48:17.859Z,22.80
2022-12-19T07:50:50.270Z,22.25
2022-12-19T07:53:22.175Z,23.88
2022-12-19T07:55:54.172Z,25.20
2022-12-19T07:58:27.797Z,23.77
2022-12-19T08:01:03.497Z,25.45
2022-12-19T08:03:36.062Z,22.80
2022-12-19T08:06:08.289Z,22.85
2022-12-19T08:08:40.426Z,25.52
2022-12-19T08:11:13.691Z,25.13
2022-12-19T08:13:48.349Z,23.33
2022-12-19T08:16:20.909Z,25.63
2022-12-19T08:18:53.007Z,24.73
2022-12-19T08:21:25.526Z,26.08
2022-12-19T08:23:57.546Z,22.88
2022-12-19T08:26:32.708Z,23.10
2022-12-19T08:29:11.040Z,22.35
2022-12-19T08:31:43.081Z,23.65
2022-12-19T08:34:15.117Z,28.17
2022-12-19T08:36:47.129Z,22.80
2022-12-19T08:39:19.190Z,34.42
2022-12-19T08:41:51.866Z,24.70
2022-12-19T08:44:25.209Z,24.15
2022-12-19T08:46:57.167Z,25.63
2022-12-19T08:49:29.110Z,26.33
2022-12-19T08:52:01.400Z,32.33
2022-12-19T08:54:33.339Z,29.10
2022-12-19T08:57:05.334Z,25.02
2022-12-19T08:59:38.723Z,23.85
2022-12-19T09:02:11.686Z,22.50
2022-12-19T09:05:58.839Z,20.95
2022-12-19T09:07:38.915Z,20.77
2022-12-19T09:10:10.940Z,22.98
2022-12-19T09:12:43.059Z,22.58
2022-12-19T09:15:16.515Z,25.35
2022-12-19T09:17:48.594Z,23.67
2022-12-19T09:20:23.686Z,25.80
2022-12-19T09:22:55.911Z,22.40
2022-12-19T09:25:27.842Z,24.33
2022-12-19T09:28:26.928Z,22.80
2022-12-19T09:30:57.293Z,23.52
2022-12-19T09:33:31.209Z,24.90
2022-12-19T09:36:03.834Z,30.90
2022-12-19T09:38:38.080Z,28.05
2022-12-19T09:41:47.644Z,31.63
2022-12-19T09:44:37.505Z,23.27
2022-12-19T09:47:14.504Z,23.23
2022-12-19T09:49:48.329Z,24.90
2022-12-19T09:52:26.910Z,23.77
2022-12-19T09:55:06.003Z,27.67
2022-12-19T09:57:44.504Z,22.65
2022-12-19T10:00:19.643Z,30.92
2022-12-19T10:03:00.210Z,22.70
2022-12-19T10:07:06.773Z,71.50
2022-12-19T10:08:38.087Z,21.20
2022-12-19T10:12:40.457Z,29.52
2022-12-19T10:14:49.535Z,28.63
2022-12-19T10:17:30.405Z,39.17
2022-12-19T10:20:15.382Z,64.18
2022-12-19T10:23:08.576Z,23.95
2022-12-19T10:25:51.641Z,20.50
2022-12-19T10:28:39.018Z,34.28
2022-12-19T10:31:21.957Z,21.83
2022-12-19T10:34:01.524Z,23.38
2022-12-19T10:37:12.925Z,28.90
2022-12-19T10:39:47.096Z,31.05
2022-12-19T10:42:30.290Z,27.90
2022-12-19T10:45:10.145Z,28.65
2022-12-19T10:47:42.594Z,25.70
2022-12-19T10:50:22.015Z,24.63
2022-12-19T10:52:56.963Z,28.45
2022-12-19T10:55:42.809Z,23.77
2022-12-19T10:58:22.053Z,20.92
2022-12-19T11:01:03.125Z,23.37
2022-12-19T11:03:35.976Z,22.52
2022-12-19T11:06:44.095Z,22.13
2022-12-19T11:09:27.735Z,23.35
2022-12-19T11:15:49.691Z,21.33
2022-12-19T11:19:13.417Z,33.03
2022-12-19T11:27:07.986Z,25.45
2022-12-19T11:29:36.812Z,23.58
2022-12-19T11:29:39.898Z,23.33
2022-12-19T11:30:37.766Z,23.67
2022-12-19T11:32:44.920Z,24.23
2022-12-19T11:35:23.924Z,23.52
2022-12-19T11:37:58.410Z,27.73
2022-12-19T11:40:34.638Z,22.60
2022-12-19T11:46:16.246Z,18.57
2022-12-19T11:48:55.353Z,21.60
2022-12-19T11:51:33.538Z,20.55
2022-12-19T11:54:13.958Z,22.05
2022-12-19T11:56:45.929Z,22.25
2022-12-19T11:59:20.880Z,20.88
2022-12-19T12:02:02.654Z,22.40
2022-12-19T12:05:04.098Z,22.80
2022-12-19T12:08:55.973Z,22.08
2022-12-19T12:18:11.298Z,21.75
2022-12-19T12:23:42.185Z,17.52
2022-12-19T12:24:21.293Z,20.27
2022-12-19T12:31:04.352Z,19.60
2022-12-19T12:31:12.696Z,19.35
2022-12-19T12:31:48.511Z,19.15
2022-12-19T12:31:58.264Z,21.65
2022-12-19T12:35:51.083Z,20.25
2022-12-19T12:38:37.005Z,19.45
2022-12-19T12:41:18.451Z,22.42
2022-12-19T12:44:07.802Z,19.58
2022-12-19T12:46:44.448Z,20.13
2022-12-19T12:49:33.409Z,22.17
2022-12-19T12:52:09.288Z,22.67
2022-12-19T12:54:43.960Z,21.42
2022-12-19T12:57:33.076Z,19.85
2022-12-19T13:00:32.411Z,18.77
2022-12-19T13:03:10.396Z,25.30
2022-12-19T13:05:54.862Z,21.05
2022-12-19T13:08:38.172Z,19.13
2022-12-19T13:11:37.557Z,20.65
2022-12-19T13:14:44.002Z,20.58
2022-12-19T13:17:44.540Z,19.48
2022-12-19T13:20:41.568Z,20.25
2022-12-19T13:23:41.777Z,18.92
2022-12-19T13:26:41.939Z,19.83
2022-12-19T13:29:32.274Z,21.15
2022-12-19T13:32:12.936Z,20.95
2022-12-19T13:35:01.736Z,21.67
2022-12-19T13:39:57.011Z,19.25
2022-12-19T13:40:56.853Z,20.70
2022-12-19T13:43:46.469Z,18.20
2022-12-19T13:46:28.080Z,18.60
2022-12-19T13:49:04.160Z,19.83
2022-12-19T13:51:46.867Z,20.10
2022-12-19T13:54:22.845Z,20.05
2022-12-19T13:56:56.460Z,18.25
2022-12-19T13:59:33.959Z,28.58
2022-12-19T14:02:14.968Z,28.98
2022-12-19T14:04:47.240Z,20.13
2022-12-19T14:07:37.529Z,19.10
2022-12-19T14:11:37.744Z,24.13
2022-12-19T14:13:43.131Z,21.42
2022-12-19T14:16:43.517Z,25.20
2022-12-19T14:19:19.678Z,18.70
2022-12-19T14:22:11.290Z,21.08
2022-12-19T14:24:54.694Z,20.63
2022-12-19T14:28:22.205Z,21.13
2022-12-19T14:30:32.853Z,22.67
2022-12-19T14:33:43.422Z,21.23
2022-12-19T14:36:12.519Z,22.20
2022-12-19T14:39:24.766Z,21.25
2022-12-19T14:42:02.509Z,20.58
2022-12-19T14:53:51.548Z,25.60
2022-12-19T14:53:52.729Z,23.80
2022-12-19T14:54:07.106Z,32.47
2022-12-19T14:54:27.382Z,25.35
2022-12-19T14:56:40.659Z,26.50
2022-12-19T14:59:36.671Z,23.73
2022-12-19T15:02:16.687Z,23.38
2022-12-19T15:05:08.497Z,24.45
2022-12-19T15:07:44.455Z,25.45
2022-12-19T15:11:04.448Z,25.00
2022-12-19T15:14:55.304Z,23.30
2022-12-19T15:16:26.577Z,29.08
2022-12-19T15:19:00.024Z,28.63
2022-12-19T15:21:33.359Z,24.35
2022-12-19T15:24:05.738Z,22.90
2022-12-19T15:26:47.464Z,21.33
2022-12-19T15:29:22.145Z,21.90
2022-12-19T15:31:54.501Z,20.42
2022-12-19T15:34:40.462Z,21.35
2022-12-19T15:39:49.671Z,21.50
2022-12-19T15:42:24.916Z,19.42
2022-12-19T15:44:59.884Z,21.33
2022-12-19T15:47:34.404Z,21.98
2022-12-19T15:50:17.049Z,21.80
2022-12-19T15:52:50.451Z,20.40
2022-12-19T15:55:26.203Z,20.27
2022-12-19T15:58:00.528Z,20.50
2022-12-19T16:00:35.463Z,20.00
2022-12-19T16:03:22.947Z,18.60
2022-12-19T16:05:56.475Z,20.77
2022-12-19T16:08:29.902Z,23.83
2022-12-19T16:11:02.543Z,21.25
2022-12-19T16:13:35.459Z,22.38
2022-12-19T16:16:15.544Z,22.38
2022-12-19T16:18:48.376Z,23.17
2022-12-19T16:21:27.485Z,22.60
2022-12-19T16:24:07.375Z,24.77
2022-12-19T16:26:40.538Z,20.98
2022-12-19T16:29:18.983Z,23.00
2022-12-19T16:31:51.349Z,21.00
2022-12-19T16:34:24.441Z,22.38
2022-12-19T16:36:56.373Z,26.05
2022-12-19T16:39:29.641Z,23.50
2022-12-19T16:42:03.942Z,25.25
2022-12-19T16:44:35.980Z,29.30
2022-12-19T16:47:13.157Z,26.05
2022-12-19T16:49:45.428Z,21.88
2022-12-19T16:52:17.372Z,20.85
2022-12-19T16:54:51.223Z,21.38
2022-12-19T16:57:23.252Z,20.45
2022-12-19T16:59:55.228Z,21.15
2022-12-19T17:02:43.418Z,18.85
2022-12-19T17:05:22.220Z,25.77
2022-12-19T17:07:54.947Z,28.90
2022-12-19T17:10:32.741Z,28.30
2022-12-19T17:13:04.912Z,24.42
2022-12-19T17:15:38.868Z,28.05
2022-12-19T17:18:14.568Z,39.90
2022-12-19T17:20:46.551Z,25.45
2022-12-19T17:23:20.990Z,22.25
2022-12-19T17:25:59.429Z,19.95
2022-12-19T17:28:31.348Z,18.48
2022-12-19T17:31:06.281Z,17.35
2022-12-19T17:33:40.383Z,18.60
2022-12-19T17:36:19.733Z,17.95
2022-12-19T17:38:55.159Z,18.00
2022-12-19T17:41:28.523Z,19.27
2022-12-19T17:44:00.472Z,20.33
2022-12-19T17:46:33.383Z,18.70
2022-12-19T17:49:05.688Z,18.38
2022-12-19T17:51:37.692Z,18.30
2022-12-19T17:54:11.205Z,18.90
2022-12-19T17:56:44.804Z,18.45
2022-12-19T17:59:16.860Z,18.08
2022-12-19T18:01:48.917Z,18.50
2022-12-19T18:04:21.974Z,17.63
2022-12-19T18:06:53.919Z,17.15
2022-12-19T18:09:25.847Z,18.35
2022-12-19T18:11:59.162Z,23.08
2022-12-19T18:14:31.093Z,20.15
2022-12-19T18:17:03.610Z,20.42
2022-12-19T18:19:35.893Z,19.67
2022-12-19T18:22:12.801Z,18.92
2022-12-19T18:24:44.917Z,19.50
2022-12-19T18:27:18.235Z,37.53
2022-12-19T18:29:50.259Z,21.23
2022-12-19T18:32:22.541Z,20.48
2022-12-19T18:34:54.574Z,39.72
2022-12-19T18:37:26.579Z,28.73
2022-12-19T18:39:58.487Z,26.15
2022-12-19T18:42:31.755Z,23.38
2022-12-19T18:45:04.104Z,22.00
2022-12-19T18:47:36.061Z,29.90
2022-12-19T18:50:15.642Z,23.98
2022-12-19T18:52:47.749Z,19.20
2022-12-19T18:55:21.339Z,19.13
2022-12-19T18:57:55.569Z,15.73
2022-12-19T19:00:27.806Z,15.65
2022-12-19T19:03:04.067Z,17.38
2022-12-19T19:05:39.182Z,15.50
2022-12-19T19:08:17.060Z,16.13
2022-12-19T19:10:53.478Z,16.45
2022-12-19T19:13:27.322Z,14.63
2022-12-19T19:16:01.764Z,15.48
2022-12-19T19:18:36.517Z,17.45
2022-12-19T19:21:12.376Z,16.73
2022-12-19T19:23:48.641Z,17.15
2022-12-19T19:26:20.650Z,16.38
2022-12-19T19:28:53.965Z,15.70
2022-12-19T19:31:27.700Z,14.45
2022-12-19T19:34:04.712Z,16.75
2022-12-19T19:36:40.261Z,14.38
2022-12-19T19:39:14.015Z,16.25
2022-12-19T19:41:46.097Z,14.80
2022-12-19T19:44:19.604Z,13.68
2022-12-19T19:46:51.577Z,15.77
2022-12-19T19:49:24.214Z,16.52
2022-12-19T19:52:02.208Z,17.23
2022-12-19T19:54:35.334Z,15.85
2022-12-19T19:57:08.351Z,16.50
2022-12-19T19:59:41.673Z,16.42
2022-12-19T20:02:13.922Z,14.43
2022-12-19T20:04:48.904Z,20.83
2022-12-19T20:07:21.592Z,15.85
2022-12-19T20:09:53.518Z,17.00
2022-12-19T20:12:25.516Z,17.33
2022-12-19T20:14:58.891Z,16.83
2022-12-19T20:17:30.904Z,16.27
2022-12-19T20:20:02.851Z,17.02
2022-12-19T20:22:34.901Z,16.25
2022-12-19T20:25:07.121Z,16.40
2022-12-19T20:27:39.139Z,14.95
2022-12-19T20:30:13.349Z,17.75
2022-12-19T20:32:45.351Z,17.70
2022-12-19T20:35:17.324Z,15.05
2022-12-19T20:37:49.300Z,15.90
2022-12-19T20:40:21.405Z,15.20
2022-12-19T20:42:53.345Z,18.85
2022-12-19T20:45:26.741Z,20.58
2022-12-19T20:47:58.705Z,18.65
2022-12-19T20:50:30.773Z,20.33
2022-12-19T20:53:02.799Z,15.00
2022-12-19T20:55:35.163Z,15.73
2022-12-19T20:58:07.146Z,16.52
2022-12-19T21:00:40.444Z,16.30
2022-12-19T21:03:29.644Z,16.92
2022-12-19T21:06:02.024Z,15.02
2022-12-19T21:08:34.827Z,14.80
2022-12-19T21:11:08.124Z,16.77
2022-12-19T21:13:41.159Z,16.85
2022-12-19T21:16:17.456Z,18.08
2022-12-19T21:18:51.352Z,16.80
2022-12-19T21:21:25.701Z,20.13
2022-12-19T21:23:57.797Z,19.38
2022-12-19T21:26:30.483Z,24.25
2022-12-19T21:29:02.554Z,16.35
2022-12-19T21:31:35.967Z,16.55
2022-12-19T21:34:07.961Z,12.10
2022-12-19T21:36:40.423Z,16.80
2022-12-19T21:39:13.161Z,15.27
2022-12-19T21:41:45.725Z,15.60
2022-12-19T21:44:17.710Z,15.70
2022-12-19T21:46:51.089Z,14.90
2022-12-19T21:49:23.146Z,16.90
2022-12-19T21:51:55.059Z,18.98
2022-12-19T21:54:27.007Z,26.33
2022-12-19T21:56:58.930Z,27.67
2022-12-19T21:59:30.887Z,39.65
2022-12-19T22:02:04.379Z,16.88
2022-12-19T22:04:36.467Z,15.65
2022-12-19T22:07:08.436Z,15.00
2022-12-19T22:09:40.399Z,14.25
2022-12-19T22:12:13.016Z,16.23
2022-12-19T22:14:45.300Z,15.05
2022-12-19T22:17:18.550Z,18.15
2022-12-19T22:19:50.505Z,14.68
2022-12-19T22:22:22.392Z,15.38
2022-12-19T22:24:54.319Z,16.77
2022-12-19T22:27:26.267Z,14.60
2022-12-19T22:29:58.316Z,14.93
2022-12-19T22:32:31.604Z,15.55
2022-12-19T22:35:03.724Z,15.48
2022-12-19T22:37:35.688Z,15.60
2022-12-19T22:40:08.827Z,14.85
2022-12-19T22:42:40.738Z,15.25
2022-12-19T22:45:12.686Z,16.27
2022-12-19T22:47:45.994Z,16.15
2022-12-19T22:50:18.062Z,14.57
2022-12-19T22:52:49.976Z,14.27
2022-12-19T22:55:21.917Z,14.80
2022-12-19T22:57:53.868Z,16.38
2022-12-19T23:00:25.865Z,14.55
2022-12-19T23:02:59.335Z,15.68
2022-12-19T23:05:31.729Z,14.93
2022-12-19T23:08:04.457Z,14.18
2022-12-19T23:10:36.713Z,14.77
2022-12-19T23:13:09.048Z,19.67
2022-12-19T23:15:40.953Z,17.70
2022-12-19T23:18:14.305Z,17.48
2022-12-19T23:20:46.311Z,15.82
2022-12-19T23:23:18.484Z,19.20
2022-12-19T23:25:50.400Z,16.95
2022-12-19T23:28:22.397Z,18.25
2022-12-19T23:31:02.746Z,17.52
2022-12-19T23:33:36.543Z,17.13
2022-12-19T23:36:10.276Z,17.73
2022-12-19T23:38:43.421Z,20.77
2022-12-19T23:41:16.298Z,28.48
2022-12-19T23:43:48.350Z,25.20
2022-12-19T23:46:23.356Z,19.40
2022-12-19T23:48:56.766Z,23.67
2022-12-19T23:51:28.969Z,17.35
2022-12-19T23:54:00.917Z,23.38
2022-12-19T23:56:33.144Z,18.13
2022-12-19T23:59:05.408Z,15.90
